sensor_id;sensor_type;location;lat;lon;timestamp;P1;durP1;ratioP1;P2;durP2;ratioP2
82475;SDS011;72099;43.176;76.872;2023-08-21T00:00:17;5.00;;;2.47;;
82475;SDS011;72099;43.176;76.872;2023-08-21T00:03:17;6.88;;;2.80;;
82475;SDS011;72099;43.176;76.872;2023-08-21T00:06:18;6.43;;;2.70;;
82475;SDS011;72099;43.176;76.872;2023-08-21T00:09:19;4.50;;;2.70;;
82475;SDS011;72099;43.176;76.872;2023-08-21T00:12:20;5.47;;;2.60;;
82475;SDS011;72099;43.176;76.872;2023-08-21T00:15:21;4.43;;;2.40;;
82475;SDS011;72099;43.176;76.872;2023-08-21T00:18:21;3.92;;;2.50;;
82475;SDS011;72099;43.176;76.872;2023-08-21T00:21:22;4.45;;;2.38;;
82475;SDS011;72099;43.176;76.872;2023-08-21T00:24:23;5.45;;;2.70;;
82475;SDS011;72099;43.176;76.872;2023-08-21T00:27:24;5.28;;;2.50;;
82475;SDS011;72099;43.176;76.872;2023-08-21T00:30:25;4.60;;;2.40;;
82475;SDS011;72099;43.176;76.872;2023-08-21T00:33:26;4.40;;;2.40;;
82475;SDS011;72099;43.176;76.872;2023-08-21T00:36:26;5.65;;;2.40;;
82475;SDS011;72099;43.176;76.872;2023-08-21T00:39:27;4.15;;;2.55;;
82475;SDS011;72099;43.176;76.872;2023-08-21T00:42:28;4.97;;;2.33;;
82475;SDS011;72099;43.176;76.872;2023-08-21T00:45:29;5.60;;;2.55;;
82475;SDS011;72099;43.176;76.872;2023-08-21T00:48:30;5.82;;;2.47;;
82475;SDS011;72099;43.176;76.872;2023-08-21T00:51:31;4.82;;;2.38;;
82475;SDS011;72099;43.176;76.872;2023-08-21T00:54:32;4.25;;;2.42;;
82475;SDS011;72099;43.176;76.872;2023-08-21T00:57:33;4.25;;;2.40;;
82475;SDS011;72099;43.176;76.872;2023-08-21T01:00:34;6.70;;;2.53;;
82475;SDS011;72099;43.176;76.872;2023-08-21T01:03:36;5.20;;;2.42;;
82475;SDS011;72099;43.176;76.872;2023-08-21T01:06:36;3.50;;;2.42;;
82475;SDS011;72099;43.176;76.872;2023-08-21T01:13:09;4.20;;;2.40;;
82475;SDS011;72099;43.176;76.872;2023-08-21T01:16:20;6.32;;;2.42;;
82475;SDS011;72099;43.176;76.872;2023-08-21T01:19:30;6.00;;;2.55;;
82475;SDS011;72099;43.176;76.872;2023-08-21T01:22:41;4.95;;;2.40;;
82475;SDS011;72099;43.176;76.872;2023-08-21T01:25:46;5.47;;;2.53;;
82475;SDS011;72099;43.176;76.872;2023-08-21T01:28:47;6.25;;;2.15;;
82475;SDS011;72099;43.176;76.872;2023-08-21T01:31:53;5.30;;;2.50;;
82475;SDS011;72099;43.176;76.872;2023-08-21T01:35:02;8.68;;;3.00;;
82475;SDS011;72099;43.176;76.872;2023-08-21T01:38:05;4.68;;;2.40;;
82475;SDS011;72099;43.176;76.872;2023-08-21T01:41:06;6.90;;;2.70;;
82475;SDS011;72099;43.176;76.872;2023-08-21T01:44:07;5.47;;;2.72;;
82475;SDS011;72099;43.176;76.872;2023-08-21T01:47:08;4.43;;;2.60;;
82475;SDS011;72099;43.176;76.872;2023-08-21T01:50:08;6.32;;;2.60;;
82475;SDS011;72099;43.176;76.872;2023-08-21T01:53:09;4.85;;;2.72;;
82475;SDS011;72099;43.176;76.872;2023-08-21T01:56:10;5.80;;;2.30;;
82475;SDS011;72099;43.176;76.872;2023-08-21T01:59:11;9.18;;;2.75;;
82475;SDS011;72099;43.176;76.872;2023-08-21T02:02:11;6.38;;;2.80;;
82475;SDS011;72099;43.176;76.872;2023-08-21T02:05:12;4.15;;;2.25;;
82475;SDS011;72099;43.176;76.872;2023-08-21T02:08:13;5.78;;;2.55;;
82475;SDS011;72099;43.176;76.872;2023-08-21T02:11:14;4.10;;;2.65;;
82475;SDS011;72099;43.176;76.872;2023-08-21T02:14:15;4.10;;;2.38;;
82475;SDS011;72099;43.176;76.872;2023-08-21T02:17:16;4.07;;;2.50;;
82475;SDS011;72099;43.176;76.872;2023-08-21T02:20:16;7.25;;;2.47;;
82475;SDS011;72099;43.176;76.872;2023-08-21T02:23:17;6.63;;;2.60;;
82475;SDS011;72099;43.176;76.872;2023-08-21T02:26:18;6.32;;;2.40;;
82475;SDS011;72099;43.176;76.872;2023-08-21T02:29:20;3.47;;;2.35;;
82475;SDS011;72099;43.176;76.872;2023-08-21T02:32:20;4.32;;;2.30;;
82475;SDS011;72099;43.176;76.872;2023-08-21T02:35:21;4.63;;;2.53;;
82475;SDS011;72099;43.176;76.872;2023-08-21T02:38:22;6.57;;;2.67;;
82475;SDS011;72099;43.176;76.872;2023-08-21T02:41:23;4.90;;;2.35;;
82475;SDS011;72099;43.176;76.872;2023-08-21T02:44:24;4.82;;;2.47;;
82475;SDS011;72099;43.176;76.872;2023-08-21T02:47:24;4.47;;;2.45;;
82475;SDS011;72099;43.176;76.872;2023-08-21T02:50:25;5.55;;;2.50;;
82475;SDS011;72099;43.176;76.872;2023-08-21T02:53:26;6.60;;;3.30;;
82475;SDS011;72099;43.176;76.872;2023-08-21T02:56:27;3.88;;;2.58;;
82475;SDS011;72099;43.176;76.872;2023-08-21T02:59:27;4.22;;;2.53;;
82475;SDS011;72099;43.176;76.872;2023-08-21T03:02:28;4.78;;;2.30;;
82475;SDS011;72099;43.176;76.872;2023-08-21T03:05:29;5.22;;;2.50;;
82475;SDS011;72099;43.176;76.872;2023-08-21T03:08:30;5.50;;;2.78;;
82475;SDS011;72099;43.176;76.872;2023-08-21T03:11:30;5.05;;;2.70;;
82475;SDS011;72099;43.176;76.872;2023-08-21T03:14:31;4.32;;;2.40;;
82475;SDS011;72099;43.176;76.872;2023-08-21T03:17:32;8.30;;;3.40;;
82475;SDS011;72099;43.176;76.872;2023-08-21T03:20:33;9.52;;;3.10;;
82475;SDS011;72099;43.176;76.872;2023-08-21T03:23:33;6.40;;;2.78;;
82475;SDS011;72099;43.176;76.872;2023-08-21T03:26:34;4.90;;;2.80;;
82475;SDS011;72099;43.176;76.872;2023-08-21T03:29:35;4.47;;;2.22;;
82475;SDS011;72099;43.176;76.872;2023-08-21T03:32:36;4.43;;;2.60;;
82475;SDS011;72099;43.176;76.872;2023-08-21T03:35:36;4.85;;;2.20;;
82475;SDS011;72099;43.176;76.872;2023-08-21T03:38:37;4.93;;;2.60;;
82475;SDS011;72099;43.176;76.872;2023-08-21T03:41:38;5.10;;;3.13;;
82475;SDS011;72099;43.176;76.872;2023-08-21T03:44:39;5.50;;;2.83;;
82475;SDS011;72099;43.176;76.872;2023-08-21T03:47:40;5.63;;;3.17;;
82475;SDS011;72099;43.176;76.872;2023-08-21T03:50:40;4.50;;;2.50;;
82475;SDS011;72099;43.176;76.872;2023-08-21T03:53:41;4.47;;;2.42;;
82475;SDS011;72099;43.176;76.872;2023-08-21T03:56:42;5.88;;;2.80;;
82475;SDS011;72099;43.176;76.872;2023-08-21T03:59:43;5.95;;;2.70;;
82475;SDS011;72099;43.176;76.872;2023-08-21T04:02:44;6.15;;;2.72;;
82475;SDS011;72099;43.176;76.872;2023-08-21T04:05:44;4.43;;;2.95;;
82475;SDS011;72099;43.176;76.872;2023-08-21T04:08:45;5.63;;;2.65;;
82475;SDS011;72099;43.176;76.872;2023-08-21T04:11:46;4.30;;;2.50;;
82475;SDS011;72099;43.176;76.872;2023-08-21T04:14:47;6.47;;;2.80;;
82475;SDS011;72099;43.176;76.872;2023-08-21T04:17:47;4.80;;;2.60;;
82475;SDS011;72099;43.176;76.872;2023-08-21T04:20:48;5.05;;;2.33;;
82475;SDS011;72099;43.176;76.872;2023-08-21T04:23:49;5.85;;;2.92;;
82475;SDS011;72099;43.176;76.872;2023-08-21T04:26:50;17.73;;;5.22;;
82475;SDS011;72099;43.176;76.872;2023-08-21T04:29:50;5.32;;;2.75;;
82475;SDS011;72099;43.176;76.872;2023-08-21T04:32:51;7.03;;;3.35;;
82475;SDS011;72099;43.176;76.872;2023-08-21T04:35:52;6.47;;;3.30;;
82475;SDS011;72099;43.176;76.872;2023-08-21T04:38:53;7.38;;;2.97;;
82475;SDS011;72099;43.176;76.872;2023-08-21T04:41:54;6.18;;;3.13;;
82475;SDS011;72099;43.176;76.872;2023-08-21T04:44:54;6.63;;;2.97;;
82475;SDS011;72099;43.176;76.872;2023-08-21T04:47:55;7.55;;;3.10;;
82475;SDS011;72099;43.176;76.872;2023-08-21T04:50:56;5.20;;;3.00;;
82475;SDS011;72099;43.176;76.872;2023-08-21T04:53:57;6.03;;;2.67;;
82475;SDS011;72099;43.176;76.872;2023-08-21T04:56:59;4.18;;;2.60;;
82475;SDS011;72099;43.176;76.872;2023-08-21T05:00:00;5.95;;;3.15;;
82475;SDS011;72099;43.176;76.872;2023-08-21T05:03:01;5.07;;;2.70;;
82475;SDS011;72099;43.176;76.872;2023-08-21T05:06:02;5.30;;;2.80;;
82475;SDS011;72099;43.176;76.872;2023-08-21T05:09:02;6.13;;;2.75;;
82475;SDS011;72099;43.176;76.872;2023-08-21T05:12:03;6.65;;;3.47;;
82475;SDS011;72099;43.176;76.872;2023-08-21T05:15:05;5.40;;;2.75;;
82475;SDS011;72099;43.176;76.872;2023-08-21T05:18:06;5.80;;;3.28;;
82475;SDS011;72099;43.176;76.872;2023-08-21T05:21:07;4.85;;;2.83;;
82475;SDS011;72099;43.176;76.872;2023-08-21T05:24:08;6.95;;;3.30;;
82475;SDS011;72099;43.176;76.872;2023-08-21T05:27:08;8.45;;;3.50;;
82475;SDS011;72099;43.176;76.872;2023-08-21T05:30:09;6.97;;;3.22;;
82475;SDS011;72099;43.176;76.872;2023-08-21T05:33:13;7.03;;;3.10;;
82475;SDS011;72099;43.176;76.872;2023-08-21T05:36:13;5.75;;;2.70;;
82475;SDS011;72099;43.176;76.872;2023-08-21T05:39:14;4.60;;;2.63;;
82475;SDS011;72099;43.176;76.872;2023-08-21T05:42:15;4.60;;;2.97;;
82475;SDS011;72099;43.176;76.872;2023-08-21T05:45:16;11.05;;;4.22;;
82475;SDS011;72099;43.176;76.872;2023-08-21T05:48:16;4.63;;;2.70;;
82475;SDS011;72099;43.176;76.872;2023-08-21T05:51:17;6.22;;;2.92;;
82475;SDS011;72099;43.176;76.872;2023-08-21T05:54:18;5.18;;;2.80;;
82475;SDS011;72099;43.176;76.872;2023-08-21T05:57:19;4.93;;;3.05;;
82475;SDS011;72099;43.176;76.872;2023-08-21T06:00:20;6.43;;;3.03;;
82475;SDS011;72099;43.176;76.872;2023-08-21T06:03:20;5.50;;;2.85;;
82475;SDS011;72099;43.176;76.872;2023-08-21T06:06:21;6.07;;;3.00;;
82475;SDS011;72099;43.176;76.872;2023-08-21T06:09:22;7.50;;;2.90;;
82475;SDS011;72099;43.176;76.872;2023-08-21T06:12:23;4.63;;;2.70;;
82475;SDS011;72099;43.176;76.872;2023-08-21T06:15:23;6.38;;;2.58;;
82475;SDS011;72099;43.176;76.872;2023-08-21T06:18:24;5.93;;;3.30;;
82475;SDS011;72099;43.176;76.872;2023-08-21T06:21:25;7.68;;;3.40;;
82475;SDS011;72099;43.176;76.872;2023-08-21T06:24:26;6.20;;;2.65;;
82475;SDS011;72099;43.176;76.872;2023-08-21T06:27:27;6.00;;;3.17;;
82475;SDS011;72099;43.176;76.872;2023-08-21T06:30:27;6.30;;;3.08;;
82475;SDS011;72099;43.176;76.872;2023-08-21T06:33:28;7.55;;;3.00;;
82475;SDS011;72099;43.176;76.872;2023-08-21T06:36:29;6.97;;;2.97;;
82475;SDS011;72099;43.176;76.872;2023-08-21T06:39:30;6.95;;;3.15;;
82475;SDS011;72099;43.176;76.872;2023-08-21T06:42:31;7.82;;;3.10;;
82475;SDS011;72099;43.176;76.872;2023-08-21T06:45:32;8.18;;;3.33;;
82475;SDS011;72099;43.176;76.872;2023-08-21T06:48:34;7.25;;;3.40;;
82475;SDS011;72099;43.176;76.872;2023-08-21T06:51:38;6.85;;;3.25;;
82475;SDS011;72099;43.176;76.872;2023-08-21T06:54:38;5.63;;;3.05;;
82475;SDS011;72099;43.176;76.872;2023-08-21T06:57:39;5.50;;;3.17;;
82475;SDS011;72099;43.176;76.872;2023-08-21T07:00:40;7.05;;;3.35;;
82475;SDS011;72099;43.176;76.872;2023-08-21T07:03:41;5.50;;;2.92;;
82475;SDS011;72099;43.176;76.872;2023-08-21T07:06:41;5.47;;;2.85;;
82475;SDS011;72099;43.176;76.872;2023-08-21T07:09:42;10.52;;;3.15;;
82475;SDS011;72099;43.176;76.872;2023-08-21T07:12:43;8.38;;;4.00;;
82475;SDS011;72099;43.176;76.872;2023-08-21T07:15:44;8.07;;;3.28;;
82475;SDS011;72099;43.176;76.872;2023-08-21T07:18:45;6.50;;;3.13;;
82475;SDS011;72099;43.176;76.872;2023-08-21T07:21:46;7.97;;;3.30;;
82475;SDS011;72099;43.176;76.872;2023-08-21T07:24:47;7.22;;;2.90;;
82475;SDS011;72099;43.176;76.872;2023-08-21T07:27:48;7.00;;;3.35;;
82475;SDS011;72099;43.176;76.872;2023-08-21T07:30:54;6.43;;;2.92;;
82475;SDS011;72099;43.176;76.872;2023-08-21T07:33:58;7.35;;;2.65;;
82475;SDS011;72099;43.176;76.872;2023-08-21T07:36:59;6.00;;;3.40;;
82475;SDS011;72099;43.176;76.872;2023-08-21T07:39:59;5.07;;;3.15;;
82475;SDS011;72099;43.176;76.872;2023-08-21T07:43:00;7.85;;;3.17;;
82475;SDS011;72099;43.176;76.872;2023-08-21T07:46:04;6.35;;;2.78;;
82475;SDS011;72099;43.176;76.872;2023-08-21T07:49:06;7.22;;;3.17;;
82475;SDS011;72099;43.176;76.872;2023-08-21T07:52:07;8.65;;;3.60;;
82475;SDS011;72099;43.176;76.872;2023-08-21T07:55:08;5.85;;;2.92;;
82475;SDS011;72099;43.176;76.872;2023-08-21T07:58:09;9.35;;;3.17;;
82475;SDS011;72099;43.176;76.872;2023-08-21T08:01:10;7.75;;;3.10;;
82475;SDS011;72099;43.176;76.872;2023-08-21T08:04:11;5.43;;;3.30;;
82475;SDS011;72099;43.176;76.872;2023-08-21T08:07:11;6.30;;;3.40;;
82475;SDS011;72099;43.176;76.872;2023-08-21T08:10:12;7.15;;;2.90;;
82475;SDS011;72099;43.176;76.872;2023-08-21T08:13:13;7.55;;;3.20;;
82475;SDS011;72099;43.176;76.872;2023-08-21T08:16:14;6.07;;;3.20;;
82475;SDS011;72099;43.176;76.872;2023-08-21T08:19:14;10.25;;;3.35;;
82475;SDS011;72099;43.176;76.872;2023-08-21T08:22:15;6.25;;;2.70;;
82475;SDS011;72099;43.176;76.872;2023-08-21T08:25:16;6.03;;;2.72;;
82475;SDS011;72099;43.176;76.872;2023-08-21T08:28:17;4.68;;;2.90;;
82475;SDS011;72099;43.176;76.872;2023-08-21T08:31:18;4.15;;;2.55;;
82475;SDS011;72099;43.176;76.872;2023-08-21T08:34:19;6.38;;;3.10;;
82475;SDS011;72099;43.176;76.872;2023-08-21T08:37:20;8.27;;;3.33;;
82475;SDS011;72099;43.176;76.872;2023-08-21T08:40:21;5.22;;;3.40;;
82475;SDS011;72099;43.176;76.872;2023-08-21T08:43:23;6.28;;;2.70;;
82475;SDS011;72099;43.176;76.872;2023-08-21T08:46:25;5.22;;;2.97;;
82475;SDS011;72099;43.176;76.872;2023-08-21T08:49:29;6.18;;;3.10;;
82475;SDS011;72099;43.176;76.872;2023-08-21T08:52:34;4.85;;;3.30;;
82475;SDS011;72099;43.176;76.872;2023-08-21T08:55:39;5.10;;;2.85;;
82475;SDS011;72099;43.176;76.872;2023-08-21T08:58:40;5.63;;;3.30;;
82475;SDS011;72099;43.176;76.872;2023-08-21T09:01:42;7.13;;;2.97;;
82475;SDS011;72099;43.176;76.872;2023-08-21T09:04:43;6.63;;;2.95;;
82475;SDS011;72099;43.176;76.872;2023-08-21T09:07:44;7.25;;;3.00;;
82475;SDS011;72099;43.176;76.872;2023-08-21T09:10:45;6.93;;;3.50;;
82475;SDS011;72099;43.176;76.872;2023-08-21T09:13:48;6.30;;;3.08;;
82475;SDS011;72099;43.176;76.872;2023-08-21T09:16:58;6.45;;;3.30;;
82475;SDS011;72099;43.176;76.872;2023-08-21T09:20:04;5.15;;;3.15;;
82475;SDS011;72099;43.176;76.872;2023-08-21T09:23:06;6.50;;;3.10;;
82475;SDS011;72099;43.176;76.872;2023-08-21T09:26:06;6.88;;;3.17;;
82475;SDS011;72099;43.176;76.872;2023-08-21T09:29:07;6.03;;;3.08;;
82475;SDS011;72099;43.176;76.872;2023-08-21T09:32:08;5.18;;;2.85;;
82475;SDS011;72099;43.176;76.872;2023-08-21T09:35:13;5.28;;;2.90;;
82475;SDS011;72099;43.176;76.872;2023-08-21T09:38:14;6.15;;;2.90;;
82475;SDS011;72099;43.176;76.872;2023-08-21T09:41:15;6.35;;;3.05;;
82475;SDS011;72099;43.176;76.872;2023-08-21T09:44:19;7.00;;;3.30;;
82475;SDS011;72099;43.176;76.872;2023-08-21T09:47:21;4.75;;;3.05;;
82475;SDS011;72099;43.176;76.872;2023-08-21T09:50:26;7.47;;;3.28;;
82475;SDS011;72099;43.176;76.872;2023-08-21T09:53:29;6.47;;;3.67;;
82475;SDS011;72099;43.176;76.872;2023-08-21T09:56:31;6.05;;;3.38;;
82475;SDS011;72099;43.176;76.872;2023-08-21T09:59:33;5.72;;;3.13;;
82475;SDS011;72099;43.176;76.872;2023-08-21T10:02:34;6.15;;;3.15;;
82475;SDS011;72099;43.176;76.872;2023-08-21T10:05:35;5.07;;;2.97;;
82475;SDS011;72099;43.176;76.872;2023-08-21T10:08:38;5.28;;;2.88;;
82475;SDS011;72099;43.176;76.872;2023-08-21T10:11:42;5.63;;;3.20;;
82475;SDS011;72099;43.176;76.872;2023-08-21T10:14:44;4.80;;;3.10;;
82475;SDS011;72099;43.176;76.872;2023-08-21T10:17:45;4.88;;;2.70;;
82475;SDS011;72099;43.176;76.872;2023-08-21T10:20:46;6.30;;;2.78;;
82475;SDS011;72099;43.176;76.872;2023-08-21T10:23:48;5.93;;;3.00;;
82475;SDS011;72099;43.176;76.872;2023-08-21T10:26:50;6.93;;;3.10;;
82475;SDS011;72099;43.176;76.872;2023-08-21T10:29:57;5.38;;;2.95;;
82475;SDS011;72099;43.176;76.872;2023-08-21T10:32:58;6.50;;;2.92;;
82475;SDS011;72099;43.176;76.872;2023-08-21T10:36:00;4.93;;;2.80;;
82475;SDS011;72099;43.176;76.872;2023-08-21T10:39:01;5.25;;;2.95;;
82475;SDS011;72099;43.176;76.872;2023-08-21T10:42:02;4.78;;;2.70;;
82475;SDS011;72099;43.176;76.872;2023-08-21T10:45:15;5.53;;;3.35;;
82475;SDS011;72099;43.176;76.872;2023-08-21T10:48:16;5.32;;;2.90;;
82475;SDS011;72099;43.176;76.872;2023-08-21T10:51:17;5.97;;;2.70;;
82475;SDS011;72099;43.176;76.872;2023-08-21T10:54:18;5.32;;;3.20;;
82475;SDS011;72099;43.176;76.872;2023-08-21T10:57:18;4.22;;;2.92;;
82475;SDS011;72099;43.176;76.872;2023-08-21T11:00:20;5.28;;;2.85;;
82475;SDS011;72099;43.176;76.872;2023-08-21T11:03:21;4.63;;;3.10;;
82475;SDS011;72099;43.176;76.872;2023-08-21T11:06:22;4.80;;;2.90;;
82475;SDS011;72099;43.176;76.872;2023-08-21T11:09:22;5.80;;;2.90;;
82475;SDS011;72099;43.176;76.872;2023-08-21T11:12:24;5.57;;;3.03;;
82475;SDS011;72099;43.176;76.872;2023-08-21T11:15:25;3.58;;;2.40;;
82475;SDS011;72099;43.176;76.872;2023-08-21T11:18:31;5.75;;;2.60;;
82475;SDS011;72099;43.176;76.872;2023-08-21T11:21:41;6.95;;;2.70;;
82475;SDS011;72099;43.176;76.872;2023-08-21T11:27:52;4.97;;;2.85;;
82475;SDS011;72099;43.176;76.872;2023-08-21T11:30:54;8.10;;;3.30;;
82475;SDS011;72099;43.176;76.872;2023-08-21T11:33:56;4.60;;;2.88;;
82475;SDS011;72099;43.176;76.872;2023-08-21T11:36:57;5.43;;;3.00;;
82475;SDS011;72099;43.176;76.872;2023-08-21T11:39:58;8.20;;;2.75;;
82475;SDS011;72099;43.176;76.872;2023-08-21T11:43:02;3.92;;;2.45;;
82475;SDS011;72099;43.176;76.872;2023-08-21T11:49:06;4.88;;;2.58;;
82475;SDS011;72099;43.176;76.872;2023-08-21T11:52:07;6.18;;;2.70;;
82475;SDS011;72099;43.176;76.872;2023-08-21T11:55:09;6.05;;;2.90;;
82475;SDS011;72099;43.176;76.872;2023-08-21T11:58:13;6.30;;;2.63;;
82475;SDS011;72099;43.176;76.872;2023-08-21T12:01:19;4.72;;;2.95;;
82475;SDS011;72099;43.176;76.872;2023-08-21T12:04:20;6.28;;;2.92;;
82475;SDS011;72099;43.176;76.872;2023-08-21T12:07:21;6.18;;;2.70;;
82475;SDS011;72099;43.176;76.872;2023-08-21T12:10:23;4.57;;;3.00;;
82475;SDS011;72099;43.176;76.872;2023-08-21T12:13:24;5.03;;;2.40;;
82475;SDS011;72099;43.176;76.872;2023-08-21T12:16:25;4.78;;;2.80;;
82475;SDS011;72099;43.176;76.872;2023-08-21T12:19:26;5.22;;;2.80;;
82475;SDS011;72099;43.176;76.872;2023-08-21T12:22:27;5.20;;;3.00;;
82475;SDS011;72099;43.176;76.872;2023-08-21T12:25:28;4.32;;;2.78;;
82475;SDS011;72099;43.176;76.872;2023-08-21T12:28:28;4.43;;;2.55;;
82475;SDS011;72099;43.176;76.872;2023-08-21T12:31:30;5.40;;;2.97;;
82475;SDS011;72099;43.176;76.872;2023-08-21T12:34:31;5.88;;;2.65;;
82475;SDS011;72099;43.176;76.872;2023-08-21T12:37:32;4.35;;;2.53;;
82475;SDS011;72099;43.176;76.872;2023-08-21T12:40:33;5.30;;;2.55;;
82475;SDS011;72099;43.176;76.872;2023-08-21T12:43:33;4.47;;;2.90;;
82475;SDS011;72099;43.176;76.872;2023-08-21T12:46:35;3.92;;;2.83;;
82475;SDS011;72099;43.176;76.872;2023-08-21T12:49:38;4.25;;;2.63;;
82475;SDS011;72099;43.176;76.872;2023-08-21T12:52:39;5.43;;;3.00;;
82475;SDS011;72099;43.176;76.872;2023-08-21T12:55:41;4.97;;;2.40;;
82475;SDS011;72099;43.176;76.872;2023-08-21T12:58:42;8.15;;;2.83;;
82475;SDS011;72099;43.176;76.872;2023-08-21T13:01:43;5.45;;;2.80;;
82475;SDS011;72099;43.176;76.872;2023-08-21T13:04:44;6.72;;;3.22;;
82475;SDS011;72099;43.176;76.872;2023-08-21T13:07:45;6.65;;;2.90;;
82475;SDS011;72099;43.176;76.872;2023-08-21T13:10:45;5.50;;;2.47;;
82475;SDS011;72099;43.176;76.872;2023-08-21T13:13:46;6.72;;;3.33;;
82475;SDS011;72099;43.176;76.872;2023-08-21T13:16:47;5.25;;;2.80;;
82475;SDS011;72099;43.176;76.872;2023-08-21T13:19:49;5.32;;;2.72;;
82475;SDS011;72099;43.176;76.872;2023-08-21T13:22:51;6.78;;;3.20;;
82475;SDS011;72099;43.176;76.872;2023-08-21T13:25:52;7.30;;;3.05;;
82475;SDS011;72099;43.176;76.872;2023-08-21T13:28:53;9.02;;;3.38;;
82475;SDS011;72099;43.176;76.872;2023-08-21T13:31:53;5.25;;;2.92;;
82475;SDS011;72099;43.176;76.872;2023-08-21T13:34:54;22.63;;;4.07;;
82475;SDS011;72099;43.176;76.872;2023-08-21T13:37:55;7.55;;;3.63;;
82475;SDS011;72099;43.176;76.872;2023-08-21T13:40:56;8.23;;;3.92;;
82475;SDS011;72099;43.176;76.872;2023-08-21T13:43:57;10.30;;;4.47;;
82475;SDS011;72099;43.176;76.872;2023-08-21T13:46:58;11.55;;;4.97;;
82475;SDS011;72099;43.176;76.872;2023-08-21T13:49:59;7.43;;;4.55;;
82475;SDS011;72099;43.176;76.872;2023-08-21T13:53:00;11.07;;;4.53;;
82475;SDS011;72099;43.176;76.872;2023-08-21T13:56:00;11.27;;;4.18;;
82475;SDS011;72099;43.176;76.872;2023-08-21T13:59:01;9.55;;;3.75;;
82475;SDS011;72099;43.176;76.872;2023-08-21T14:02:02;10.48;;;5.20;;
82475;SDS011;72099;43.176;76.872;2023-08-21T14:05:03;7.72;;;3.70;;
82475;SDS011;72099;43.176;76.872;2023-08-21T14:08:04;11.32;;;4.15;;
82475;SDS011;72099;43.176;76.872;2023-08-21T14:11:05;11.13;;;4.35;;
82475;SDS011;72099;43.176;76.872;2023-08-21T14:14:06;8.52;;;4.53;;
82475;SDS011;72099;43.176;76.872;2023-08-21T14:17:07;6.95;;;4.00;;
82475;SDS011;72099;43.176;76.872;2023-08-21T14:20:08;6.63;;;4.15;;
82475;SDS011;72099;43.176;76.872;2023-08-21T14:23:11;9.93;;;5.00;;
82475;SDS011;72099;43.176;76.872;2023-08-21T14:26:12;13.70;;;4.28;;
82475;SDS011;72099;43.176;76.872;2023-08-21T14:29:13;8.07;;;4.45;;
82475;SDS011;72099;43.176;76.872;2023-08-21T14:32:14;9.30;;;4.30;;
82475;SDS011;72099;43.176;76.872;2023-08-21T14:35:15;8.88;;;4.40;;
82475;SDS011;72099;43.176;76.872;2023-08-21T14:38:16;8.45;;;3.88;;
82475;SDS011;72099;43.176;76.872;2023-08-21T14:41:17;7.55;;;4.22;;
82475;SDS011;72099;43.176;76.872;2023-08-21T14:44:18;7.03;;;4.38;;
82475;SDS011;72099;43.176;76.872;2023-08-21T14:47:19;9.02;;;4.22;;
82475;SDS011;72099;43.176;76.872;2023-08-21T14:50:19;7.57;;;4.20;;
82475;SDS011;72099;43.176;76.872;2023-08-21T14:53:21;10.25;;;4.40;;
82475;SDS011;72099;43.176;76.872;2023-08-21T14:56:21;10.27;;;4.03;;
82475;SDS011;72099;43.176;76.872;2023-08-21T14:59:22;7.82;;;3.80;;
82475;SDS011;72099;43.176;76.872;2023-08-21T15:02:23;7.82;;;4.32;;
82475;SDS011;72099;43.176;76.872;2023-08-21T15:05:26;5.95;;;3.70;;
82475;SDS011;72099;43.176;76.872;2023-08-21T15:08:28;7.20;;;3.45;;
82475;SDS011;72099;43.176;76.872;2023-08-21T15:11:29;8.30;;;4.45;;
82475;SDS011;72099;43.176;76.872;2023-08-21T15:14:30;8.02;;;4.05;;
82475;SDS011;72099;43.176;76.872;2023-08-21T15:17:31;8.65;;;4.10;;
82475;SDS011;72099;43.176;76.872;2023-08-21T15:20:31;6.70;;;3.78;;
82475;SDS011;72099;43.176;76.872;2023-08-21T15:23:32;10.10;;;3.22;;
82475;SDS011;72099;43.176;76.872;2023-08-21T15:26:33;7.65;;;3.63;;
82475;SDS011;72099;43.176;76.872;2023-08-21T15:29:34;7.40;;;3.60;;
82475;SDS011;72099;43.176;76.872;2023-08-21T15:32:35;8.50;;;4.57;;
82475;SDS011;72099;43.176;76.872;2023-08-21T15:35:36;13.18;;;4.00;;
82475;SDS011;72099;43.176;76.872;2023-08-21T15:38:37;6.22;;;3.30;;
82475;SDS011;72099;43.176;76.872;2023-08-21T15:41:38;8.00;;;3.50;;
82475;SDS011;72099;43.176;76.872;2023-08-21T15:44:39;6.95;;;3.58;;
82475;SDS011;72099;43.176;76.872;2023-08-21T15:47:39;6.57;;;3.50;;
82475;SDS011;72099;43.176;76.872;2023-08-21T15:50:40;8.55;;;3.55;;
82475;SDS011;72099;43.176;76.872;2023-08-21T15:53:41;7.78;;;3.53;;
82475;SDS011;72099;43.176;76.872;2023-08-21T15:56:42;9.10;;;3.85;;
82475;SDS011;72099;43.176;76.872;2023-08-21T15:59:43;9.52;;;3.70;;
82475;SDS011;72099;43.176;76.872;2023-08-21T16:02:44;7.40;;;3.60;;
82475;SDS011;72099;43.176;76.872;2023-08-21T16:05:46;8.77;;;4.05;;
82475;SDS011;72099;43.176;76.872;2023-08-21T16:08:46;10.75;;;4.15;;
82475;SDS011;72099;43.176;76.872;2023-08-21T16:11:47;7.32;;;3.90;;
82475;SDS011;72099;43.176;76.872;2023-08-21T16:14:48;9.43;;;4.32;;
82475;SDS011;72099;43.176;76.872;2023-08-21T16:17:50;9.73;;;4.20;;
82475;SDS011;72099;43.176;76.872;2023-08-21T16:20:51;9.90;;;4.63;;
82475;SDS011;72099;43.176;76.872;2023-08-21T16:23:52;8.73;;;4.07;;
82475;SDS011;72099;43.176;76.872;2023-08-21T16:26:53;6.82;;;4.30;;
82475;SDS011;72099;43.176;76.872;2023-08-21T16:29:54;8.48;;;4.00;;
82475;SDS011;72099;43.176;76.872;2023-08-21T16:32:55;10.07;;;4.10;;
82475;SDS011;72099;43.176;76.872;2023-08-21T16:35:56;6.43;;;3.83;;
82475;SDS011;72099;43.176;76.872;2023-08-21T16:38:57;9.88;;;3.60;;
82475;SDS011;72099;43.176;76.872;2023-08-21T16:41:58;5.38;;;4.00;;
82475;SDS011;72099;43.176;76.872;2023-08-21T16:44:59;7.78;;;3.95;;
82475;SDS011;72099;43.176;76.872;2023-08-21T16:48:00;9.82;;;4.40;;
82475;SDS011;72099;43.176;76.872;2023-08-21T16:51:00;8.93;;;4.97;;
82475;SDS011;72099;43.176;76.872;2023-08-21T16:54:01;9.80;;;5.32;;
82475;SDS011;72099;43.176;76.872;2023-08-21T16:57:02;7.30;;;4.85;;
82475;SDS011;72099;43.176;76.872;2023-08-21T17:00:03;10.35;;;4.50;;
82475;SDS011;72099;43.176;76.872;2023-08-21T17:03:09;12.07;;;4.50;;
82475;SDS011;72099;43.176;76.872;2023-08-21T17:06:10;8.73;;;4.47;;
82475;SDS011;72099;43.176;76.872;2023-08-21T17:09:11;9.23;;;4.32;;
82475;SDS011;72099;43.176;76.872;2023-08-21T17:12:13;10.60;;;5.05;;
82475;SDS011;72099;43.176;76.872;2023-08-21T17:15:14;11.70;;;5.45;;
82475;SDS011;72099;43.176;76.872;2023-08-21T17:18:16;9.52;;;4.47;;
82475;SDS011;72099;43.176;76.872;2023-08-21T17:21:16;10.85;;;4.90;;
82475;SDS011;72099;43.176;76.872;2023-08-21T17:24:17;10.45;;;4.82;;
82475;SDS011;72099;43.176;76.872;2023-08-21T17:27:19;7.38;;;4.65;;
82475;SDS011;72099;43.176;76.872;2023-08-21T17:30:20;8.88;;;4.72;;
82475;SDS011;72099;43.176;76.872;2023-08-21T17:33:21;14.43;;;4.95;;
82475;SDS011;72099;43.176;76.872;2023-08-21T17:36:21;9.85;;;5.15;;
82475;SDS011;72099;43.176;76.872;2023-08-21T17:39:22;9.95;;;4.43;;
82475;SDS011;72099;43.176;76.872;2023-08-21T17:42:23;9.02;;;4.55;;
82475;SDS011;72099;43.176;76.872;2023-08-21T17:45:24;8.50;;;4.78;;
82475;SDS011;72099;43.176;76.872;2023-08-21T17:48:25;9.10;;;4.18;;
82475;SDS011;72099;43.176;76.872;2023-08-21T17:51:26;9.82;;;4.60;;
82475;SDS011;72099;43.176;76.872;2023-08-21T17:54:27;9.48;;;4.32;;
82475;SDS011;72099;43.176;76.872;2023-08-21T17:57:27;7.82;;;4.22;;
82475;SDS011;72099;43.176;76.872;2023-08-21T18:00:28;8.55;;;3.92;;
82475;SDS011;72099;43.176;76.872;2023-08-21T18:03:29;10.30;;;5.03;;